Time;durP1;ratioP1;P1;durP2;ratioP2;P2;SDS_P1;SDS_P2;PMS_P1;PMS_P2;Temp;Humidity;BMP_temperature;BMP_pressure;BME280_temperature;BME280_humidity;BME280_pressure;Samples;Min_cycle;Max_cycle;Signal;HPM_P1;HPM_P2
2021/10/30 00:01:05;;;;;;;2.22;1.80;;;13.80;85.30;;;;;;5070190;28;20044;-83
2021/10/30 00:03:32;;;;;;;2.40;2.20;;;13.80;85.20;;;;;;5070435;28;20036;-83
2021/10/30 00:05:57;;;;;;;2.80;2.10;;;13.80;85.10;;;;;;5060366;28;20032;-83
2021/10/30 00:08:24;;;;;;;3.22;2.22;;;13.80;85.20;;;;;;5070729;28;20441;-83
2021/10/30 00:10:50;;;;;;;2.25;1.98;;;13.80;85.20;;;;;;5068234;28;20075;-83
2021/10/30 00:13:15;;;;;;;2.10;1.90;;;13.70;85.20;;;;;;5070592;28;20071;-83
2021/10/30 00:15:42;;;;;;;2.45;1.83;;;13.70;85.10;;;;;;5063519;28;20124;-82
2021/10/30 00:18:08;;;;;;;2.20;1.90;;;13.70;85.10;;;;;;5068328;28;20024;-82
2021/10/30 00:20:35;;;;;;;2.30;2.08;;;13.70;85.20;;;;;;5069045;28;20017;-81
2021/10/30 00:23:00;;;;;;;3.15;2.08;;;13.70;85.30;;;;;;5061626;28;20036;-82
2021/10/30 00:25:26;;;;;;;2.20;2.00;;;13.70;85.30;;;;;;5069273;28;20013;-82
2021/10/30 00:27:51;;;;;;;2.40;2.03;;;13.60;85.20;;;;;;5057680;28;20033;-81
2021/10/30 00:30:17;;;;;;;2.47;2.20;;;13.60;85.20;;;;;;5069012;28;20031;-81
2021/10/30 00:32:42;;;;;;;2.78;2.10;;;13.70;85.30;;;;;;5069977;28;20391;-82
2021/10/30 00:35:08;;;;;;;2.47;1.98;;;13.60;85.20;;;;;;5061047;28;20150;-81
2021/10/30 00:37:34;;;;;;;2.25;2.05;;;13.70;85.10;;;;;;5070392;28;20020;-82
2021/10/30 00:39:59;;;;;;;2.40;2.00;;;13.70;85.10;;;;;;5066855;28;20020;-81
2021/10/30 00:42:25;;;;;;;1.92;1.80;;;13.70;85.10;;;;;;5066467;28;20025;-81
2021/10/30 00:44:50;;;;;;;2.35;2.10;;;13.70;85.10;;;;;;5069683;28;20066;-81
2021/10/30 00:47:16;;;;;;;2.30;2.10;;;13.70;85.20;;;;;;5059771;28;20027;-81
2021/10/30 00:49:43;;;;;;;1.88;1.67;;;13.60;85.10;;;;;;5068370;28;20386;-82
2021/10/30 00:52:09;;;;;;;1.80;1.65;;;13.60;85.20;;;;;;5064663;28;20024;-81
2021/10/30 00:54:37;;;;;;;2.30;2.10;;;13.60;85.20;;;;;;5066082;28;20082;-82
2021/10/30 00:57:03;;;;;;;2.92;2.40;;;13.50;85.20;;;;;;5070310;28;20028;-82
2021/10/30 00:59:29;;;;;;;2.38;2.17;;;13.50;85.30;;;;;;5069506;28;20028;-82
2021/10/30 01:01:55;;;;;;;3.00;2.30;;;13.50;85.30;;;;;;5070787;28;20025;-83
2021/10/30 01:04:20;;;;;;;2.65;2.30;;;13.50;85.30;;;;;;5070058;28;20142;-80
2021/10/30 01:06:49;;;;;;;3.10;2.30;;;13.50;85.40;;;;;;5065034;28;20028;-82
2021/10/30 01:09:16;;;;;;;2.90;2.40;;;13.50;85.30;;;;;;5059125;28;20028;-83
2021/10/30 01:11:42;;;;;;;3.05;2.38;;;13.50;85.20;;;;;;5068920;28;20513;-82
2021/10/30 01:14:10;;;;;;;2.95;2.40;;;13.50;85.10;;;;;;5058953;28;20043;-82
2021/10/30 01:16:35;;;;;;;3.25;2.78;;;13.50;85.10;;;;;;5056747;28;20031;-83
2021/10/30 01:19:01;;;;;;;2.67;2.30;;;13.50;85.20;;;;;;5068834;28;20024;-82
2021/10/30 01:21:32;;;;;;;3.17;2.40;;;13.40;85.20;;;;;;5068915;28;20033;-81
2021/10/30 01:23:59;;;;;;;3.47;2.75;;;13.40;85.20;;;;;;5057610;28;20468;-81
2021/10/30 01:26:25;;;;;;;4.45;3.63;;;13.40;85.10;;;;;;5061829;28;20070;-82
2021/10/30 01:28:52;;;;;;;3.95;3.33;;;13.40;85.20;;;;;;5058128;28;20025;-82
2021/10/30 01:31:20;;;;;;;3.85;3.15;;;13.30;85.20;;;;;;5067591;28;20476;-83
2021/10/30 01:33:49;;;;;;;4.10;3.22;;;13.30;85.40;;;;;;5067986;28;20036;-82
2021/10/30 01:36:16;;;;;;;4.45;3.92;;;13.20;85.40;;;;;;5060872;28;20043;-83
2021/10/30 01:38:43;;;;;;;2.58;2.38;;;13.20;85.60;;;;;;5066967;28;20020;-84
2021/10/30 01:41:09;;;;;;;4.38;3.45;;;13.10;85.60;;;;;;5069748;28;20017;-83
2021/10/30 01:43:35;;;;;;;4.13;3.60;;;13.10;85.90;;;;;;5069154;28;20021;-84
2021/10/30 01:46:01;;;;;;;4.18;3.47;;;13.10;86.00;;;;;;5070149;28;20543;-83
2021/10/30 01:48:36;;;;;;;5.18;3.92;;;13.10;86.00;;;;;;5072356;28;20063;-84
2021/10/30 01:51:02;;;;;;;5.47;3.38;;;13.10;86.00;;;;;;5061708;28;20033;-82
2021/10/30 01:53:28;;;;;;;3.75;3.00;;;13.10;86.00;;;;;;5069566;28;20028;-82
2021/10/30 01:55:54;;;;;;;3.35;2.92;;;13.10;86.00;;;;;;5073719;28;20418;-81
2021/10/30 01:58:20;;;;;;;3.10;2.80;;;13.10;85.90;;;;;;5071060;28;20043;-82
2021/10/30 02:00:49;;;;;;;2.83;2.53;;;13.10;85.80;;;;;;5077731;28;20074;-83
2021/10/30 02:03:14;;;;;;;3.05;2.75;;;13.10;85.90;;;;;;5067974;28;20029;-82
2021/10/30 02:05:40;;;;;;;4.65;2.90;;;13.10;85.80;;;;;;5067884;28;20112;-83
2021/10/30 02:08:06;;;;;;;3.97;3.13;;;13.10;85.80;;;;;;5065077;28;20036;-85
2021/10/30 02:10:31;;;;;;;4.50;3.83;;;13.10;85.90;;;;;;5070306;28;20029;-84
2021/10/30 02:12:57;;;;;;;4.53;3.35;;;13.00;85.90;;;;;;5063956;28;20020;-84
2021/10/30 02:15:23;;;;;;;2.78;2.53;;;13.00;86.00;;;;;;5073253;28;20033;-81
2021/10/30 02:17:49;;;;;;;3.70;3.20;;;13.10;86.00;;;;;;5066318;28;20036;-81
2021/10/30 02:20:15;;;;;;;4.72;3.92;;;13.00;86.00;;;;;;5073154;28;20056;-82
2021/10/30 02:22:41;;;;;;;4.72;3.20;;;13.00;86.30;;;;;;5071952;28;20025;-82
2021/10/30 02:25:09;;;;;;;3.50;3.00;;;13.00;86.40;;;;;;5072983;28;20103;-83
2021/10/30 02:27:35;;;;;;;3.80;3.20;;;13.00;86.40;;;;;;5072085;28;20032;-83
2021/10/30 02:30:01;;;;;;;4.55;3.50;;;13.00;86.40;;;;;;5064099;28;20021;-81
2021/10/30 02:32:27;;;;;;;3.60;2.95;;;12.90;86.60;;;;;;5063867;28;20086;-83
2021/10/30 02:34:53;;;;;;;5.00;3.30;;;13.00;86.70;;;;;;5071254;28;20028;-83
2021/10/30 02:37:18;;;;;;;3.25;2.90;;;13.00;86.60;;;;;;5069776;28;20430;-83
2021/10/30 02:39:44;;;;;;;3.53;3.08;;;13.00;86.70;;;;;;5070173;28;20058;-82
2021/10/30 02:42:09;;;;;;;4.57;3.83;;;13.00;86.70;;;;;;5065089;28;20063;-83
2021/10/30 02:44:35;;;;;;;5.18;3.85;;;12.90;86.90;;;;;;5066420;28;20058;-83
2021/10/30 02:47:01;;;;;;;4.78;3.30;;;13.00;87.00;;;;;;5062991;28;20032;-82
2021/10/30 02:49:26;;;;;;;2.70;2.30;;;13.00;87.10;;;;;;5064592;28;20075;-84
2021/10/30 02:51:52;;;;;;;2.97;2.63;;;13.00;87.00;;;;;;5067749;28;20041;-83
2021/10/30 02:54:17;;;;;;;3.10;2.80;;;13.00;87.00;;;;;;5065804;28;20037;-83
2021/10/30 02:56:43;;;;;;;3.97;3.22;;;13.10;87.00;;;;;;5062162;28;20040;-83
2021/10/30 02:59:10;;;;;;;5.90;4.30;;;13.10;87.00;;;;;;5071261;28;20025;-83
2021/10/30 03:01:35;;;;;;;8.10;5.20;;;13.00;87.20;;;;;;5071281;28;20033;-83
2021/10/30 03:04:01;;;;;;;5.53;4.18;;;13.00;87.40;;;;;;5071107;28;20109;-82
2021/10/30 03:06:27;;;;;;;5.70;4.20;;;13.00;87.50;;;;;;5064446;28;20036;-82
2021/10/30 03:08:53;;;;;;;5.20;4.10;;;13.00;87.60;;;;;;5064559;28;20024;-83
2021/10/30 03:11:19;;;;;;;4.45;3.28;;;13.00;87.60;;;;;;5064813;28;20013;-83
2021/10/30 03:13:45;;;;;;;5.38;4.28;;;13.00;87.60;;;;;;5068577;28;20062;-83
2021/10/30 03:16:11;;;;;;;4.55;3.75;;;13.00;87.60;;;;;;5068981;28;20020;-83
2021/10/30 03:18:37;;;;;;;7.15;5.22;;;13.00;87.50;;;;;;5065378;28;20028;-84
2021/10/30 03:21:04;;;;;;;8.23;6.35;;;13.10;87.50;;;;;;5066987;28;20407;-88
2021/10/30 03:23:30;;;;;;;7.63;6.55;;;13.00;87.80;;;;;;5070670;28;20028;-83
2021/10/30 03:25:56;;;;;;;6.80;4.43;;;13.00;87.90;;;;;;5063974;28;20032;-82
2021/10/30 03:28:21;;;;;;;5.65;4.72;;;13.00;88.00;;;;;;5061156;28;20371;-82
2021/10/30 03:30:47;;;;;;;6.78;5.28;;;13.00;88.10;;;;;;5069853;28;20089;-82
2021/10/30 03:33:13;;;;;;;6.13;4.78;;;13.00;88.40;;;;;;5066509;28;20037;-83
2021/10/30 03:35:39;;;;;;;5.60;4.20;;;12.90;88.50;;;;;;5066887;28;20024;-83
2021/10/30 03:38:04;;;;;;;7.43;5.45;;;13.00;88.60;;;;;;5066736;28;20604;-86
2021/10/30 03:40:30;;;;;;;6.10;4.70;;;12.90;88.50;;;;;;5064533;28;20029;-85
2021/10/30 03:42:56;;;;;;;6.97;5.22;;;13.00;88.70;;;;;;5066591;28;20479;-84
2021/10/30 03:45:22;;;;;;;8.00;5.57;;;12.90;88.60;;;;;;5070434;28;20459;-83
2021/10/30 03:47:48;;;;;;;7.38;4.50;;;12.90;88.70;;;;;;5058944;28;20033;-83
2021/10/30 03:50:14;;;;;;;6.78;4.75;;;12.90;88.60;;;;;;5067649;28;20052;-84
2021/10/30 03:52:39;;;;;;;7.25;5.20;;;12.90;88.50;;;;;;5056927;28;20028;-85
2021/10/30 03:55:06;;;;;;;7.70;5.60;;;13.00;88.50;;;;;;5071994;28;20541;-85
2021/10/30 03:57:32;;;;;;;7.78;6.07;;;12.90;88.20;;;;;;5065344;28;20410;-86
2021/10/30 03:59:58;;;;;;;6.47;5.03;;;12.90;88.20;;;;;;5067516;28;20028;-85
2021/10/30 04:02:24;;;;;;;8.55;6.70;;;12.90;88.00;;;;;;5071688;28;20044;-86
2021/10/30 04:04:50;;;;;;;8.18;6.25;;;13.00;88.00;;;;;;5071555;28;20028;-84
2021/10/30 04:07:15;;;;;;;7.43;5.75;;;12.90;87.80;;;;;;5059634;28;20486;-84
2021/10/30 04:09:41;;;;;;;9.15;7.18;;;12.90;87.70;;;;;;5070914;28;20028;-85
2021/10/30 04:12:07;;;;;;;11.27;8.13;;;12.90;87.70;;;;;;5068948;28;20032;-85
2021/10/30 04:14:32;;;;;;;13.15;9.63;;;12.90;87.60;;;;;;5069044;28;20564;-85
2021/10/30 04:16:58;;;;;;;9.30;7.05;;;12.90;87.50;;;;;;5066965;28;20048;-86
2021/10/30 04:19:23;;;;;;;7.75;6.38;;;12.80;87.40;;;;;;5055903;28;20028;-86
2021/10/30 04:21:49;;;;;;;6.60;5.10;;;12.80;87.40;;;;;;5070890;28;20035;-85
2021/10/30 04:24:15;;;;;;;6.78;5.10;;;12.90;87.40;;;;;;5059019;28;20025;-86
2021/10/30 04:26:41;;;;;;;6.63;5.57;;;12.90;87.20;;;;;;5064841;28;20124;-86
2021/10/30 04:29:06;;;;;;;10.20;7.13;;;12.90;87.10;;;;;;5070474;28;20127;-86
2021/10/30 04:31:33;;;;;;;11.52;7.55;;;12.90;86.90;;;;;;5066091;28;20024;-83
2021/10/30 04:34:01;;;;;;;9.38;7.13;;;12.90;86.80;;;;;;5070340;28;20044;-83
2021/10/30 04:36:29;;;;;;;8.70;6.53;;;12.90;86.70;;;;;;5059681;28;20475;-83
2021/10/30 04:38:55;;;;;;;8.15;6.45;;;12.90;86.70;;;;;;5052723;28;20025;-83
2021/10/30 04:41:21;;;;;;;9.63;7.53;;;12.90;86.60;;;;;;5067535;28;20127;-80
2021/10/30 04:43:48;;;;;;;12.60;8.73;;;12.80;86.60;;;;;;5070490;28;20518;-82
2021/10/30 04:46:15;;;;;;;10.25;7.85;;;12.80;86.50;;;;;;5067364;28;20036;-81
2021/10/30 04:48:41;;;;;;;12.20;7.55;;;12.80;86.60;;;;;;5063555;28;20024;-81
2021/10/30 04:51:07;;;;;;;10.35;7.80;;;12.80;86.50;;;;;;5057620;28;20099;-81
2021/10/30 04:53:39;;;;;;;9.77;7.80;;;12.70;86.50;;;;;;5057084;28;20029;-81
2021/10/30 04:56:06;;;;;;;10.50;7.32;;;12.70;86.40;;;;;;5069980;28;20059;-82
2021/10/30 04:58:32;;;;;;;8.65;6.10;;;12.80;86.40;;;;;;5069758;28;20066;-82
2021/10/30 05:00:58;;;;;;;10.10;7.43;;;12.80;86.20;;;;;;5066296;28;20021;-83
2021/10/30 05:03:24;;;;;;;9.15;7.63;;;12.70;86.10;;;;;;5068658;28;20032;-83
2021/10/30 05:05:51;;;;;;;9.70;7.50;;;12.70;85.90;;;;;;5071079;28;20100;-84
2021/10/30 05:08:16;;;;;;;11.35;8.07;;;12.70;85.90;;;;;;5066653;28;20500;-83
2021/10/30 05:10:42;;;;;;;8.95;6.30;;;12.70;85.80;;;;;;5059286;28;20113;-84
2021/10/30 05:13:08;;;;;;;11.52;8.40;;;12.70;85.80;;;;;;5068501;28;20119;-84
2021/10/30 05:15:33;;;;;;;8.20;6.10;;;12.70;85.50;;;;;;5058173;28;20025;-83
2021/10/30 05:18:00;;;;;;;7.90;5.72;;;12.70;85.50;;;;;;5060955;28;20032;-84
2021/10/30 05:20:26;;;;;;;8.13;6.18;;;12.70;85.50;;;;;;5066603;28;20024;-84
2021/10/30 05:22:52;;;;;;;12.80;8.55;;;12.70;85.40;;;;;;5064953;28;20027;-84
2021/10/30 05:25:18;;;;;;;9.27;6.18;;;12.70;85.10;;;;;;5067753;28;20033;-83
2021/10/30 05:27:45;;;;;;;11.32;8.43;;;12.70;85.10;;;;;;5065537;28;20020;-82
2021/10/30 05:30:12;;;;;;;10.13;7.70;;;12.70;84.70;;;;;;5058215;28;20024;-81
2021/10/30 05:32:37;;;;;;;10.32;7.03;;;12.60;84.80;;;;;;5066107;28;20096;-81
2021/10/30 05:35:04;;;;;;;10.45;7.85;;;12.60;84.80;;;;;;5061128;28;20571;-81
2021/10/30 05:37:32;;;;;;;9.45;7.07;;;12.60;84.80;;;;;;5069002;28;20064;-82
2021/10/30 05:39:58;;;;;;;9.05;7.15;;;12.60;85.00;;;;;;5067818;28;20036;-81
2021/10/30 05:42:24;;;;;;;11.52;8.05;;;12.60;85.10;;;;;;5065390;28;20383;-80
2021/10/30 05:44:49;;;;;;;12.15;8.05;;;12.60;85.20;;;;;;5062551;28;20474;-80
2021/10/30 05:47:15;;;;;;;9.20;7.03;;;12.50;85.30;;;;;;5058284;28;20032;-82
2021/10/30 05:49:43;;;;;;;9.48;7.57;;;12.60;85.50;;;;;;5057661;28;20025;-80
2021/10/30 05:52:10;;;;;;;9.63;6.93;;;12.50;85.70;;;;;;5068482;28;20033;-81
2021/10/30 05:54:38;;;;;;;9.00;7.20;;;12.50;85.80;;;;;;5069896;28;20040;-80
2021/10/30 05:57:08;;;;;;;9.40;6.15;;;12.40;85.90;;;;;;5062532;28;20041;-80
2021/10/30 05:59:33;;;;;;;10.30;6.90;;;12.50;86.00;;;;;;5066455;28;20031;-80
2021/10/30 06:01:59;;;;;;;8.98;7.00;;;12.40;86.10;;;;;;5069630;28;20025;-81
2021/10/30 06:04:27;;;;;;;7.78;6.18;;;12.40;86.20;;;;;;5068419;28;20025;-84
2021/10/30 06:06:53;;;;;;;8.15;5.65;;;12.50;86.30;;;;;;5055236;28;20056;-81
2021/10/30 06:09:18;;;;;;;8.93;6.50;;;12.50;86.30;;;;;;5070597;28;20469;-81
2021/10/30 06:11:44;;;;;;;8.05;5.53;;;12.50;86.30;;;;;;5071860;28;20096;-78
2021/10/30 06:14:10;;;;;;;9.68;7.15;;;12.50;86.40;;;;;;5067605;28;20086;-80
2021/10/30 06:16:36;;;;;;;8.20;6.40;;;12.50;87.20;;;;;;5059122;28;20015;-80
2021/10/30 06:19:03;;;;;;;9.10;6.30;;;12.40;86.80;;;;;;5058238;28;20032;-79
2021/10/30 06:21:28;;;;;;;8.55;5.97;;;12.40;87.00;;;;;;5058853;28;20108;-80
2021/10/30 06:23:58;;;;;;;7.88;5.40;;;12.50;87.00;;;;;;5071132;28;20733;-80
2021/10/30 06:26:24;;;;;;;7.95;5.38;;;12.50;86.90;;;;;;5061463;28;20020;-80
2021/10/30 06:28:49;;;;;;;10.02;6.00;;;12.50;86.80;;;;;;5056910;28;20108;-81
2021/10/30 06:31:15;;;;;;;8.27;5.70;;;12.50;86.90;;;;;;5060791;28;20051;-80
2021/10/30 06:33:41;;;;;;;8.23;6.38;;;12.50;87.10;;;;;;5070084;28;20060;-78
2021/10/30 06:36:09;;;;;;;11.00;7.60;;;12.40;87.30;;;;;;5069355;28;20017;-78
2021/10/30 06:38:34;;;;;;;8.15;5.93;;;12.40;87.60;;;;;;5065204;28;20029;-78
2021/10/30 06:41:01;;;;;;;8.45;6.85;;;12.40;87.90;;;;;;5067480;28;20135;-89
2021/10/30 06:43:28;;;;;;;9.75;7.63;;;12.40;88.10;;;;;;5067710;28;20116;-81
2021/10/30 06:45:54;;;;;;;8.65;6.80;;;12.30;88.30;;;;;;5070152;28;20470;-81
2021/10/30 06:48:20;;;;;;;9.63;7.13;;;12.30;88.70;;;;;;5067568;28;20066;-82
2021/10/30 06:50:46;;;;;;;10.20;7.13;;;12.30;88.90;;;;;;5067705;28;20028;-81
2021/10/30 06:53:11;;;;;;;9.93;7.05;;;12.40;88.90;;;;;;5064774;28;20037;-81
2021/10/30 06:55:37;;;;;;;12.07;8.80;;;12.30;88.90;;;;;;5071107;28;20648;-82
2021/10/30 06:58:02;;;;;;;9.73;7.20;;;12.30;89.20;;;;;;5067156;28;20028;-80
2021/10/30 07:00:28;;;;;;;8.93;6.10;;;12.30;89.30;;;;;;5064641;28;20033;-81
2021/10/30 07:02:54;;;;;;;12.77;9.32;;;12.40;89.30;;;;;;5068695;28;20482;-82
2021/10/30 07:05:21;;;;;;;9.32;6.85;;;12.30;89.60;;;;;;5067912;28;20043;-80
2021/10/30 07:07:46;;;;;;;10.27;7.32;;;12.30;89.70;;;;;;5074574;28;20039;-81
2021/10/30 07:10:12;;;;;;;10.90;7.30;;;12.40;89.60;;;;;;5079866;28;20036;-80
2021/10/30 07:12:38;;;;;;;8.63;6.75;;;12.40;89.60;;;;;;5060397;28;20032;-80
2021/10/30 07:15:06;;;;;;;7.93;5.95;;;12.40;89.80;;;;;;5069931;28;20111;-80
2021/10/30 07:17:32;;;;;;;12.35;8.45;;;12.30;89.80;;;;;;5070478;28;20479;-80
2021/10/30 07:19:58;;;;;;;11.18;7.85;;;12.40;90.00;;;;;;5063604;28;20020;-79
2021/10/30 07:22:23;;;;;;;12.80;7.00;;;12.40;90.00;;;;;;5060296;28;20493;-80
2021/10/30 07:24:50;;;;;;;10.90;7.82;;;12.40;90.00;;;;;;5070630;28;20027;-80
2021/10/30 07:27:17;;;;;;;10.75;8.45;;;12.40;90.10;;;;;;5077331;28;20475;-80
2021/10/30 07:29:46;;;;;;;10.60;7.45;;;12.40;90.10;;;;;;5064982;28;20016;-79
2021/10/30 07:32:13;;;;;;;9.93;7.05;;;12.40;90.20;;;;;;5063764;28;20016;-79
2021/10/30 07:34:38;;;;;;;8.80;6.25;;;12.40;90.10;;;;;;5068143;28;20478;-77
2021/10/30 07:37:04;;;;;;;9.05;6.82;;;12.40;90.10;;;;;;5073451;28;20032;-76
2021/10/30 07:39:29;;;;;;;11.65;9.13;;;12.50;90.10;;;;;;5065262;28;20446;-77
2021/10/30 07:41:55;;;;;;;12.32;8.30;;;12.40;90.10;;;;;;5067775;28;20058;-77
2021/10/30 07:44:20;;;;;;;10.30;7.78;;;12.40;90.30;;;;;;5070048;28;20022;-77
2021/10/30 07:46:46;;;;;;;8.57;6.03;;;12.40;90.20;;;;;;5066569;28;20032;-77
2021/10/30 07:49:13;;;;;;;10.60;8.05;;;12.50;90.20;;;;;;5063264;28;20463;-78
2021/10/30 07:51:39;;;;;;;8.43;6.13;;;12.40;90.20;;;;;;5060230;28;20033;-77
2021/10/30 07:54:04;;;;;;;9.07;6.65;;;12.40;90.20;;;;;;5064747;28;20071;-77
2021/10/30 07:56:30;;;;;;;8.75;5.93;;;12.50;90.20;;;;;;5063825;28;20021;-77
2021/10/30 07:58:55;;;;;;;6.82;5.00;;;12.50;90.50;;;;;;5066986;28;20025;-77
2021/10/30 08:01:21;;;;;;;7.65;5.90;;;12.50;90.20;;;;;;5060985;28;20027;-77
2021/10/30 08:03:46;;;;;;;8.38;5.32;;;12.50;90.20;;;;;;5058487;28;20028;-77
2021/10/30 08:06:12;;;;;;;7.20;6.10;;;12.60;90.20;;;;;;5062101;28;20383;-77
2021/10/30 08:08:37;;;;;;;10.60;7.97;;;12.60;90.10;;;;;;5061334;28;20475;-77
2021/10/30 08:11:03;;;;;;;7.75;5.97;;;12.60;90.20;;;;;;5050953;28;20029;-77
2021/10/30 08:13:29;;;;;;;8.20;5.88;;;12.60;90.20;;;;;;5057084;28;20032;-77
2021/10/30 08:15:55;;;;;;;9.27;6.63;;;12.60;90.20;;;;;;5068013;28;20512;-77
2021/10/30 08:18:21;;;;;;;6.93;5.65;;;12.60;90.20;;;;;;5066089;28;20036;-77
2021/10/30 08:20:46;;;;;;;9.63;6.40;;;12.70;90.20;;;;;;5067180;28;20545;-77
2021/10/30 08:23:12;;;;;;;9.65;7.03;;;12.70;90.10;;;;;;5060771;28;20043;-77
2021/10/30 08:25:38;;;;;;;9.93;6.22;;;12.70;90.10;;;;;;5066800;28;20017;-77
2021/10/30 08:28:03;;;;;;;7.72;5.70;;;12.60;90.20;;;;;;5068537;28;20103;-78
2021/10/30 08:30:30;;;;;;;7.30;5.50;;;12.70;90.20;;;;;;5070252;28;20021;-77
2021/10/30 08:32:56;;;;;;;10.18;6.85;;;12.70;90.10;;;;;;5068119;28;20032;-77
2021/10/30 08:35:22;;;;;;;9.23;6.97;;;12.70;90.20;;;;;;5070017;28;20044;-78
2021/10/30 08:37:48;;;;;;;8.77;6.15;;;12.70;90.30;;;;;;5068041;28;20064;-77
2021/10/30 08:40:14;;;;;;;9.20;5.72;;;12.70;90.30;;;;;;5067679;28;20056;-77
2021/10/30 08:42:50;;;;;;;7.03;4.70;;;12.70;90.30;;;;;;5065841;28;20067;-77
2021/10/30 08:45:17;;;;;;;7.18;4.88;;;12.70;90.20;;;;;;5065060;28;20093;-77
2021/10/30 08:47:46;;;;;;;8.85;5.80;;;12.80;90.20;;;;;;5069045;28;20021;-77
2021/10/30 08:50:14;;;;;;;6.32;4.60;;;12.80;90.20;;;;;;5068122;28;20103;-77
2021/10/30 08:52:39;;;;;;;8.60;5.22;;;12.80;90.20;;;;;;5068900;28;20471;-78
2021/10/30 08:55:08;;;;;;;6.57;5.07;;;12.80;90.10;;;;;;5068398;28;20032;-79
2021/10/30 08:57:35;;;;;;;7.05;5.10;;;12.80;90.40;;;;;;5068096;28;20021;-78
2021/10/30 09:00:24;;;;;;;6.40;4.95;;;12.80;90.10;;;;;;5065670;28;20348;-78
2021/10/30 09:03:02;;;;;;;8.38;5.25;;;12.90;90.10;;;;;;5068412;28;20036;-77
2021/10/30 09:05:30;;;;;;;6.93;4.68;;;12.90;90.10;;;;;;5068994;28;20036;-77
2021/10/30 09:07:58;;;;;;;7.32;4.90;;;12.90;90.00;;;;;;5064278;28;20052;-77
2021/10/30 09:10:35;;;;;;;6.03;4.22;;;12.90;90.00;;;;;;5068077;28;20016;-78
2021/10/30 09:13:04;;;;;;;7.15;4.95;;;13.00;90.00;;;;;;5065858;28;20032;-77
2021/10/30 09:15:36;;;;;;;6.78;5.07;;;12.90;90.00;;;;;;5067637;28;20405;-77
2021/10/30 09:18:05;;;;;;;8.18;5.53;;;13.00;90.10;;;;;;5066096;28;20097;-77
2021/10/30 09:20:36;;;;;;;8.45;5.35;;;13.00;90.00;;;;;;5069433;28;20021;-76
2021/10/30 09:23:04;;;;;;;6.40;4.60;;;13.00;90.00;;;;;;5064096;28;20063;-77
2021/10/30 09:25:30;;;;;;;6.70;4.03;;;13.10;90.10;;;;;;5073979;28;20025;-77
2021/10/30 09:28:02;;;;;;;7.68;5.03;;;13.10;90.00;;;;;;5068347;28;20035;-78
2021/10/30 09:30:32;;;;;;;6.95;5.00;;;13.10;90.00;;;;;;5065486;28;20386;-77
2021/10/30 09:33:05;;;;;;;5.85;4.28;;;13.10;90.00;;;;;;5067666;28;20100;-77
2021/10/30 09:35:33;;;;;;;6.32;4.30;;;13.10;90.00;;;;;;5067733;28;20025;-78
2021/10/30 09:38:00;;;;;;;6.30;4.90;;;13.10;90.20;;;;;;5057435;28;20019;-80
2021/10/30 09:40:33;;;;;;;6.18;4.30;;;13.20;89.70;;;;;;5061353;28;20063;-78
2021/10/30 09:43:14;;;;;;;5.95;4.10;;;13.20;89.70;;;;;;5063090;28;20074;-78
2021/10/30 09:45:42;;;;;;;6.55;4.43;;;13.30;89.70;;;;;;5063521;28;20032;-78
2021/10/30 09:48:09;;;;;;;5.28;4.05;;;13.20;89.60;;;;;;5066885;28;20029;-77
2021/10/30 09:50:35;;;;;;;6.35;4.10;;;13.30;89.60;;;;;;5060767;28;20444;-77
2021/10/30 09:53:25;;;;;;;4.55;3.63;;;13.30;89.50;;;;;;5062244;28;20037;-77
2021/10/30 09:55:52;;;;;;;7.07;4.40;;;13.30;89.50;;;;;;5053789;28;20083;-77
2021/10/30 09:58:30;;;;;;;7.03;4.10;;;13.30;89.50;;;;;;5057110;28;20024;-77
2021/10/30 10:01:02;;;;;;;5.20;4.10;;;13.30;89.60;;;;;;5062891;28;20028;-77
2021/10/30 10:03:29;;;;;;;5.90;4.50;;;13.30;89.70;;;;;;5082357;28;20045;-77
2021/10/30 10:05:56;;;;;;;6.22;4.63;;;13.30;89.60;;;;;;5065772;28;20429;-77
2021/10/30 10:08:24;;;;;;;8.50;4.88;;;13.30;89.80;;;;;;5059277;28;20052;-77
2021/10/30 10:10:54;;;;;;;5.18;3.78;;;13.30;90.00;;;;;;5057499;28;20095;-77
2021/10/30 10:13:21;;;;;;;5.95;4.15;;;13.30;90.00;;;;;;5066122;28;20020;-77
2021/10/30 10:15:48;;;;;;;5.97;4.18;;;13.30;90.00;;;;;;5068619;28;20041;-76
2021/10/30 10:18:14;;;;;;;6.68;4.28;;;13.30;89.90;;;;;;5071881;28;20098;-77
2021/10/30 10:20:41;;;;;;;5.20;4.07;;;13.30;90.00;;;;;;5068685;28;20044;-77
2021/10/30 10:23:06;;;;;;;6.03;4.32;;;13.30;90.00;;;;;;5086766;28;20052;-77
2021/10/30 10:25:34;;;;;;;5.90;3.78;;;13.30;90.10;;;;;;5065618;28;20067;-77
2021/10/30 10:28:39;;;;;;;4.85;3.75;;;13.30;90.00;;;;;;5075572;28;20028;-77
2021/10/30 10:31:25;;;;;;;5.72;4.03;;;13.40;90.10;;;;;;4973837;28;20026;-78
2021/10/30 10:34:13;;;;;;;5.05;4.13;;;13.30;90.10;;;;;;5058298;28;20048;-78
2021/10/30 10:37:10;;;;;;;5.75;4.60;;;13.30;90.20;;;;;;5076135;28;20024;-84
2021/10/30 10:39:41;;;;;;;6.28;4.50;;;13.30;90.20;;;;;;5079600;28;20043;-89
2021/10/30 10:42:15;;;;;;;7.22;4.35;;;13.30;90.30;;;;;;5072485;28;20382;-82
2021/10/30 10:44:42;;;;;;;5.47;3.97;;;13.30;90.30;;;;;;5065846;28;20455;-86
2021/10/30 10:47:38;;;;;;;5.30;4.13;;;13.40;90.30;;;;;;5069076;28;20040;-80
2021/10/30 10:50:35;;;;;;;8.20;4.70;;;13.40;90.30;;;;;;5066766;28;20478;-77
2021/10/30 10:53:05;;;;;;;6.20;5.28;;;13.40;90.40;;;;;;5066938;28;20503;-80
2021/10/30 10:55:36;;;;;;;5.57;4.20;;;13.40;90.40;;;;;;5065740;28;20040;-80
2021/10/30 10:58:04;;;;;;;8.13;4.40;;;13.40;90.40;;;;;;5069452;28;20032;-78
2021/10/30 11:00:31;;;;;;;5.75;4.13;;;13.40;90.50;;;;;;5073018;28;20409;-78
2021/10/30 11:02:59;;;;;;;5.90;4.18;;;13.40;90.60;;;;;;5068596;28;20033;-85
2021/10/30 11:05:27;;;;;;;4.80;3.83;;;13.40;90.60;;;;;;5065884;28;20044;-84
2021/10/30 11:07:53;;;;;;;5.43;3.67;;;13.40;90.60;;;;;;5066127;28;20039;-82
2021/10/30 11:10:30;;;;;;;5.00;4.30;;;13.50;90.60;;;;;;5067895;28;20013;-80
2021/10/30 11:15:26;;;;;;;3.78;3.35;;;13.40;90.60;;;;;;5070184;28;20033;-82
2021/10/30 11:18:15;;;;;;;4.90;3.35;;;13.50;90.60;;;;;;5066043;28;20039;-83
2021/10/30 11:21:18;;;;;;;3.92;3.05;;;13.50;90.60;;;;;;5068149;28;20090;-83
2021/10/30 11:23:50;;;;;;;4.13;3.00;;;13.50;90.60;;;;;;5075578;28;20107;-89
2021/10/30 11:26:32;;;;;;;5.40;4.05;;;13.50;90.50;;;;;;5072953;28;20024;-91
2021/10/30 11:29:12;;;;;;;5.87;4.47;;;13.50;90.50;;;;;;5073058;28;20656;-92
2021/10/30 11:31:39;;;;;;;5.03;3.80;;;13.60;90.60;;;;;;5085271;28;20033;-90
2021/10/30 11:34:10;;;;;;;4.97;3.65;;;13.60;90.60;;;;;;5074543;28;20041;-90
2021/10/30 11:36:38;;;;;;;4.57;2.80;;;13.60;90.60;;;;;;5074490;28;20051;-91
2021/10/30 11:39:06;;;;;;;5.97;4.70;;;13.70;90.60;;;;;;5074361;28;20540;-91
2021/10/30 11:41:36;;;;;;;4.80;3.50;;;13.70;90.60;;;;;;5072721;28;20025;-90
2021/10/30 11:44:07;;;;;;;4.68;3.75;;;13.70;90.60;;;;;;5082578;28;20040;-90
2021/10/30 11:46:35;;;;;;;4.72;3.00;;;13.70;90.60;;;;;;5075881;28;20044;-90
2021/10/30 11:49:01;;;;;;;3.60;3.05;;;13.70;90.50;;;;;;5070347;28;20597;-88
2021/10/30 11:51:35;;;;;;;2.85;2.47;;;13.80;90.60;;;;;;5068294;28;20033;-89
2021/10/30 11:54:01;;;;;;;5.10;3.30;;;13.80;90.50;;;;;;5067569;28;20496;-88
2021/10/30 11:56:29;;;;;;;4.25;3.08;;;13.80;90.50;;;;;;5067046;28;20089;-90
2021/10/30 11:59:01;;;;;;;4.30;3.40;;;13.90;90.50;;;;;;5083289;28;20111;-86
2021/10/30 12:01:41;;;;;;;3.10;2.33;;;13.90;90.50;;;;;;5081529;28;20060;-89
2021/10/30 12:04:17;;;;;;;3.55;2.90;;;14.00;90.50;;;;;;5086383;28;20103;-90
2021/10/30 12:06:49;;;;;;;4.82;3.25;;;14.00;90.40;;;;;;5070044;28;20032;-89
2021/10/30 12:09:33;;;;;;;3.00;2.70;;;14.00;90.40;;;;;;5064533;28;20025;-87
2021/10/30 12:12:23;;;;;;;4.65;2.88;;;14.00;90.40;;;;;;5063492;28;20109;-88
2021/10/30 12:14:54;;;;;;;3.17;2.63;;;14.10;90.30;;;;;;5076811;28;20029;-90
2021/10/30 12:17:30;;;;;;;3.97;2.97;;;14.10;90.30;;;;;;5075988;28;20024;-90
2021/10/30 12:20:00;;;;;;;4.05;2.72;;;14.10;90.20;;;;;;5081707;28;20025;-88
2021/10/30 12:22:36;;;;;;;5.07;3.63;;;14.10;90.20;;;;;;5064901;28;20025;-90
2021/10/30 12:25:15;;;;;;;3.42;2.83;;;14.20;90.20;;;;;;5068429;28;20518;-87
2021/10/30 12:27:49;;;;;;;4.47;2.70;;;14.10;90.20;;;;;;5064125;28;20032;-91
2021/10/30 12:30:25;;;;;;;4.65;3.03;;;14.20;90.20;;;;;;5064621;28;20063;-90
2021/10/30 12:32:51;;;;;;;4.38;2.97;;;14.30;90.10;;;;;;5062361;28;20024;-85
2021/10/30 12:35:26;;;;;;;3.30;2.70;;;14.20;90.10;;;;;;5064703;28;20048;-88
2021/10/30 12:38:11;;;;;;;3.83;2.60;;;14.20;90.20;;;;;;5065771;28;20074;-86
2021/10/30 12:40:37;;;;;;;4.45;3.03;;;14.30;90.10;;;;;;5078449;28;20028;-85
2021/10/30 12:43:17;;;;;;;3.90;3.25;;;14.30;90.10;;;;;;5073048;28;20028;-86
2021/10/30 12:45:47;;;;;;;4.30;3.20;;;14.30;90.20;;;;;;5070996;28;20027;-86
2021/10/30 12:48:15;;;;;;;4.05;3.00;;;14.30;90.20;;;;;;5075343;28;20017;-87
2021/10/30 12:50:41;;;;;;;5.05;2.78;;;14.40;90.20;;;;;;5069985;28;20033;-86
2021/10/30 12:53:22;;;;;;;2.95;2.50;;;14.40;90.20;;;;;;5074248;28;20097;-82